sensor_id;sensor_type;location;lat;lon;timestamp;P1;durP1;ratioP1;P2;durP2;ratioP2
842;SDS011;407;48.884;9.126;2022-07-29T00:01:31;11.00;;;7.20;;
842;SDS011;407;48.884;9.126;2022-07-29T00:03:57;12.50;;;7.93;;
842;SDS011;407;48.884;9.126;2022-07-29T00:06:22;11.18;;;7.45;;
842;SDS011;407;48.884;9.126;2022-07-29T00:08:48;13.88;;;7.90;;
842;SDS011;407;48.884;9.126;2022-07-29T00:11:13;11.07;;;7.13;;
842;SDS011;407;48.884;9.126;2022-07-29T00:13:39;10.13;;;6.90;;
842;SDS011;407;48.884;9.126;2022-07-29T00:16:07;12.50;;;7.60;;
842;SDS011;407;48.884;9.126;2022-07-29T00:18:33;12.30;;;7.70;;
842;SDS011;407;48.884;9.126;2022-07-29T00:20:59;12.63;;;8.40;;
842;SDS011;407;48.884;9.126;2022-07-29T00:23:25;12.98;;;8.00;;
842;SDS011;407;48.884;9.126;2022-07-29T00:25:59;11.87;;;7.67;;
842;SDS011;407;48.884;9.126;2022-07-29T00:28:28;12.02;;;7.75;;
842;SDS011;407;48.884;9.126;2022-07-29T00:30:59;14.43;;;9.00;;
842;SDS011;407;48.884;9.126;2022-07-29T00:33:42;11.63;;;7.80;;
842;SDS011;407;48.884;9.126;2022-07-29T00:36:08;13.60;;;9.63;;
842;SDS011;407;48.884;9.126;2022-07-29T00:38:50;14.95;;;9.30;;
842;SDS011;407;48.884;9.126;2022-07-29T00:44:16;13.30;;;7.60;;
842;SDS011;407;48.884;9.126;2022-07-29T00:46:44;13.07;;;8.60;;
842;SDS011;407;48.884;9.126;2022-07-29T00:49:10;11.75;;;8.10;;
842;SDS011;407;48.884;9.126;2022-07-29T00:51:36;12.07;;;8.18;;
842;SDS011;407;48.884;9.126;2022-07-29T00:54:07;13.52;;;8.40;;
842;SDS011;407;48.884;9.126;2022-07-29T00:56:33;12.98;;;8.32;;
842;SDS011;407;48.884;9.126;2022-07-29T00:59:01;13.70;;;8.15;;
842;SDS011;407;48.884;9.126;2022-07-29T01:01:27;13.30;;;8.40;;
842;SDS011;407;48.884;9.126;2022-07-29T01:04:09;15.07;;;8.20;;
842;SDS011;407;48.884;9.126;2022-07-29T01:06:41;12.32;;;7.82;;
842;SDS011;407;48.884;9.126;2022-07-29T01:09:13;12.20;;;8.07;;
842;SDS011;407;48.884;9.126;2022-07-29T01:11:43;11.68;;;7.90;;
842;SDS011;407;48.884;9.126;2022-07-29T01:14:13;12.40;;;8.23;;
842;SDS011;407;48.884;9.126;2022-07-29T01:16:50;11.40;;;7.65;;
842;SDS011;407;48.884;9.126;2022-07-29T01:19:28;12.63;;;8.02;;
842;SDS011;407;48.884;9.126;2022-07-29T01:30:20;13.70;;;8.60;;
842;SDS011;407;48.884;9.126;2022-07-29T01:32:50;12.95;;;8.63;;
842;SDS011;407;48.884;9.126;2022-07-29T01:35:23;14.68;;;9.15;;
842;SDS011;407;48.884;9.126;2022-07-29T01:38:01;13.20;;;8.60;;
842;SDS011;407;48.884;9.126;2022-07-29T01:41:03;18.90;;;9.93;;
842;SDS011;407;48.884;9.126;2022-07-29T01:43:49;14.50;;;9.60;;
842;SDS011;407;48.884;9.126;2022-07-29T01:46:25;17.98;;;10.07;;
842;SDS011;407;48.884;9.126;2022-07-29T01:49:06;15.80;;;10.45;;
842;SDS011;407;48.884;9.126;2022-07-29T01:57:17;15.48;;;10.43;;
842;SDS011;407;48.884;9.126;2022-07-29T01:59:51;15.00;;;10.30;;
842;SDS011;407;48.884;9.126;2022-07-29T02:02:19;13.45;;;9.90;;
842;SDS011;407;48.884;9.126;2022-07-29T02:04:47;17.08;;;10.10;;
842;SDS011;407;48.884;9.126;2022-07-29T02:07:19;15.10;;;9.80;;
842;SDS011;407;48.884;9.126;2022-07-29T02:09:50;15.97;;;10.00;;
842;SDS011;407;48.884;9.126;2022-07-29T02:12:28;15.53;;;10.37;;
842;SDS011;407;48.884;9.126;2022-07-29T02:15:03;14.95;;;9.85;;
842;SDS011;407;48.884;9.126;2022-07-29T02:17:43;15.02;;;10.18;;
842;SDS011;407;48.884;9.126;2022-07-29T02:20:18;15.43;;;9.70;;
842;SDS011;407;48.884;9.126;2022-07-29T02:22:50;13.93;;;9.32;;
842;SDS011;407;48.884;9.126;2022-07-29T02:25:19;15.55;;;10.00;;
842;SDS011;407;48.884;9.126;2022-07-29T02:27:54;14.35;;;9.63;;
842;SDS011;407;48.884;9.126;2022-07-29T02:30:25;13.98;;;9.35;;
842;SDS011;407;48.884;9.126;2022-07-29T02:32:56;15.57;;;9.90;;
842;SDS011;407;48.884;9.126;2022-07-29T02:35:25;13.00;;;8.82;;
842;SDS011;407;48.884;9.126;2022-07-29T02:37:59;13.48;;;9.95;;
842;SDS011;407;48.884;9.126;2022-07-29T02:40:43;14.77;;;9.25;;
842;SDS011;407;48.884;9.126;2022-07-29T02:43:13;13.38;;;9.00;;
842;SDS011;407;48.884;9.126;2022-07-29T02:45:47;14.47;;;9.57;;
842;SDS011;407;48.884;9.126;2022-07-29T02:48:22;13.03;;;9.70;;
842;SDS011;407;48.884;9.126;2022-07-29T02:51:23;14.07;;;9.13;;
842;SDS011;407;48.884;9.126;2022-07-29T02:54:09;13.15;;;9.73;;
842;SDS011;407;48.884;9.126;2022-07-29T02:56:36;14.60;;;9.10;;
842;SDS011;407;48.884;9.126;2022-07-29T02:59:10;13.02;;;8.90;;
842;SDS011;407;48.884;9.126;2022-07-29T03:01:44;13.45;;;9.07;;
842;SDS011;407;48.884;9.126;2022-07-29T03:04:11;12.77;;;8.70;;
842;SDS011;407;48.884;9.126;2022-07-29T03:06:44;13.10;;;9.00;;
842;SDS011;407;48.884;9.126;2022-07-29T03:09:16;14.52;;;9.93;;
842;SDS011;407;48.884;9.126;2022-07-29T03:11:56;16.98;;;10.40;;
842;SDS011;407;48.884;9.126;2022-07-29T03:14:36;14.77;;;10.48;;
842;SDS011;407;48.884;9.126;2022-07-29T03:17:10;15.18;;;9.65;;
842;SDS011;407;48.884;9.126;2022-07-29T03:19:46;14.80;;;9.88;;
842;SDS011;407;48.884;9.126;2022-07-29T03:22:18;14.83;;;9.20;;
842;SDS011;407;48.884;9.126;2022-07-29T03:24:44;14.20;;;9.13;;
842;SDS011;407;48.884;9.126;2022-07-29T03:27:09;13.00;;;9.17;;
842;SDS011;407;48.884;9.126;2022-07-29T03:29:38;14.55;;;10.00;;
842;SDS011;407;48.884;9.126;2022-07-29T03:32:04;14.95;;;10.50;;
842;SDS011;407;48.884;9.126;2022-07-29T03:34:33;15.75;;;10.20;;
842;SDS011;407;48.884;9.126;2022-07-29T03:37:05;13.40;;;9.97;;
842;SDS011;407;48.884;9.126;2022-07-29T03:39:38;16.23;;;9.85;;
842;SDS011;407;48.884;9.126;2022-07-29T03:42:06;15.40;;;9.50;;
842;SDS011;407;48.884;9.126;2022-07-29T03:44:35;14.70;;;9.45;;
842;SDS011;407;48.884;9.126;2022-07-29T03:47:02;14.60;;;9.80;;
842;SDS011;407;48.884;9.126;2022-07-29T03:49:33;15.10;;;9.93;;
842;SDS011;407;48.884;9.126;2022-07-29T03:52:01;14.40;;;9.57;;
842;SDS011;407;48.884;9.126;2022-07-29T03:54:33;14.85;;;9.75;;
842;SDS011;407;48.884;9.126;2022-07-29T03:57:07;14.48;;;10.18;;
842;SDS011;407;48.884;9.126;2022-07-29T03:59:38;14.95;;;10.50;;
842;SDS011;407;48.884;9.126;2022-07-29T04:02:15;15.32;;;10.57;;
842;SDS011;407;48.884;9.126;2022-07-29T04:04:40;14.60;;;10.30;;
842;SDS011;407;48.884;9.126;2022-07-29T04:07:06;17.67;;;10.90;;
842;SDS011;407;48.884;9.126;2022-07-29T04:09:32;18.27;;;11.57;;
842;SDS011;407;48.884;9.126;2022-07-29T04:12:00;16.52;;;10.80;;
842;SDS011;407;48.884;9.126;2022-07-29T04:14:26;14.87;;;10.27;;
842;SDS011;407;48.884;9.126;2022-07-29T04:16:51;16.47;;;10.33;;
842;SDS011;407;48.884;9.126;2022-07-29T04:19:17;15.80;;;10.75;;
842;SDS011;407;48.884;9.126;2022-07-29T04:21:43;14.50;;;10.40;;
842;SDS011;407;48.884;9.126;2022-07-29T04:24:10;17.95;;;10.50;;
842;SDS011;407;48.884;9.126;2022-07-29T04:26:35;14.93;;;9.60;;
842;SDS011;407;48.884;9.126;2022-07-29T04:29:03;14.40;;;10.65;;
842;SDS011;407;48.884;9.126;2022-07-29T04:31:29;15.55;;;10.30;;
842;SDS011;407;48.884;9.126;2022-07-29T04:33:54;14.20;;;10.00;;
842;SDS011;407;48.884;9.126;2022-07-29T04:36:20;14.97;;;9.80;;
842;SDS011;407;48.884;9.126;2022-07-29T04:38:45;16.23;;;10.80;;
842;SDS011;407;48.884;9.126;2022-07-29T04:41:11;14.98;;;9.70;;
842;SDS011;407;48.884;9.126;2022-07-29T04:43:37;14.95;;;10.75;;
842;SDS011;407;48.884;9.126;2022-07-29T04:46:03;14.80;;;11.50;;
842;SDS011;407;48.884;9.126;2022-07-29T04:48:31;14.20;;;10.82;;
842;SDS011;407;48.884;9.126;2022-07-29T04:51:02;13.80;;;10.00;;
842;SDS011;407;48.884;9.126;2022-07-29T04:53:33;14.93;;;9.85;;
842;SDS011;407;48.884;9.126;2022-07-29T04:55:59;14.50;;;10.05;;
842;SDS011;407;48.884;9.126;2022-07-29T04:58:27;16.80;;;9.70;;
842;SDS011;407;48.884;9.126;2022-07-29T05:01:03;15.30;;;10.20;;
842;SDS011;407;48.884;9.126;2022-07-29T05:03:37;16.25;;;10.10;;
842;SDS011;407;48.884;9.126;2022-07-29T05:06:03;13.77;;;9.83;;
842;SDS011;407;48.884;9.126;2022-07-29T05:08:29;14.03;;;8.80;;
842;SDS011;407;48.884;9.126;2022-07-29T05:10:54;12.73;;;8.70;;
842;SDS011;407;48.884;9.126;2022-07-29T05:13:20;14.00;;;8.85;;
842;SDS011;407;48.884;9.126;2022-07-29T05:15:45;15.95;;;9.00;;
842;SDS011;407;48.884;9.126;2022-07-29T05:18:11;13.90;;;8.07;;
842;SDS011;407;48.884;9.126;2022-07-29T05:20:40;13.52;;;8.70;;
842;SDS011;407;48.884;9.126;2022-07-29T05:23:08;11.73;;;7.47;;
842;SDS011;407;48.884;9.126;2022-07-29T05:25:37;11.27;;;7.38;;
842;SDS011;407;48.884;9.126;2022-07-29T05:28:03;12.40;;;7.40;;
842;SDS011;407;48.884;9.126;2022-07-29T05:30:29;11.93;;;7.25;;
842;SDS011;407;48.884;9.126;2022-07-29T05:32:55;11.40;;;6.53;;
842;SDS011;407;48.884;9.126;2022-07-29T05:35:20;11.25;;;6.88;;
842;SDS011;407;48.884;9.126;2022-07-29T05:37:46;10.32;;;5.85;;
842;SDS011;407;48.884;9.126;2022-07-29T05:40:11;10.13;;;7.00;;
842;SDS011;407;48.884;9.126;2022-07-29T05:42:37;11.25;;;6.60;;
842;SDS011;407;48.884;9.126;2022-07-29T05:45:03;11.23;;;6.60;;
842;SDS011;407;48.884;9.126;2022-07-29T05:47:29;11.55;;;6.95;;
842;SDS011;407;48.884;9.126;2022-07-29T05:49:55;11.10;;;6.63;;
842;SDS011;407;48.884;9.126;2022-07-29T05:52:21;11.98;;;6.68;;
842;SDS011;407;48.884;9.126;2022-07-29T05:54:46;13.65;;;7.20;;
842;SDS011;407;48.884;9.126;2022-07-29T05:57:19;9.65;;;6.50;;
842;SDS011;407;48.884;9.126;2022-07-29T05:59:47;10.20;;;6.45;;
842;SDS011;407;48.884;9.126;2022-07-29T06:02:14;9.90;;;6.72;;
842;SDS011;407;48.884;9.126;2022-07-29T06:04:40;10.90;;;6.57;;
842;SDS011;407;48.884;9.126;2022-07-29T06:07:06;10.48;;;6.32;;
842;SDS011;407;48.884;9.126;2022-07-29T06:09:32;11.10;;;6.45;;
842;SDS011;407;48.884;9.126;2022-07-29T06:12:01;9.82;;;6.10;;
842;SDS011;407;48.884;9.126;2022-07-29T06:14:48;10.38;;;5.35;;
842;SDS011;407;48.884;9.126;2022-07-29T06:17:15;11.68;;;6.05;;
842;SDS011;407;48.884;9.126;2022-07-29T06:19:41;9.10;;;5.37;;
842;SDS011;407;48.884;9.126;2022-07-29T06:22:09;10.25;;;5.43;;
842;SDS011;407;48.884;9.126;2022-07-29T06:24:35;10.40;;;5.80;;
842;SDS011;407;48.884;9.126;2022-07-29T06:27:02;9.52;;;5.30;;
842;SDS011;407;48.884;9.126;2022-07-29T06:29:30;8.07;;;4.23;;
842;SDS011;407;48.884;9.126;2022-07-29T06:31:55;8.50;;;3.90;;
842;SDS011;407;48.884;9.126;2022-07-29T06:34:24;7.77;;;3.80;;
842;SDS011;407;48.884;9.126;2022-07-29T06:36:49;7.32;;;3.70;;
842;SDS011;407;48.884;9.126;2022-07-29T06:39:15;8.00;;;3.88;;
842;SDS011;407;48.884;9.126;2022-07-29T06:41:45;7.50;;;3.72;;
842;SDS011;407;48.884;9.126;2022-07-29T06:44:13;10.90;;;4.38;;
842;SDS011;407;48.884;9.126;2022-07-29T06:46:39;8.70;;;3.90;;
842;SDS011;407;48.884;9.126;2022-07-29T06:49:05;8.23;;;4.03;;
842;SDS011;407;48.884;9.126;2022-07-29T06:51:31;7.53;;;3.93;;
842;SDS011;407;48.884;9.126;2022-07-29T06:53:57;8.70;;;4.20;;
842;SDS011;407;48.884;9.126;2022-07-29T06:56:23;8.05;;;3.83;;
842;SDS011;407;48.884;9.126;2022-07-29T06:58:49;7.00;;;3.47;;
842;SDS011;407;48.884;9.126;2022-07-29T07:01:17;8.40;;;3.72;;
842;SDS011;407;48.884;9.126;2022-07-29T07:03:43;7.53;;;3.70;;
842;SDS011;407;48.884;9.126;2022-07-29T07:06:14;7.80;;;4.10;;
842;SDS011;407;48.884;9.126;2022-07-29T07:08:40;7.85;;;3.90;;
842;SDS011;407;48.884;9.126;2022-07-29T07:11:09;8.50;;;4.63;;
842;SDS011;407;48.884;9.126;2022-07-29T07:13:35;8.80;;;4.43;;
842;SDS011;407;48.884;9.126;2022-07-29T07:16:01;8.93;;;4.50;;
842;SDS011;407;48.884;9.126;2022-07-29T07:18:32;7.78;;;4.20;;
842;SDS011;407;48.884;9.126;2022-07-29T07:21:00;8.40;;;4.90;;
842;SDS011;407;48.884;9.126;2022-07-29T07:23:30;9.05;;;4.85;;
842;SDS011;407;48.884;9.126;2022-07-29T07:25:55;7.93;;;5.10;;
842;SDS011;407;48.884;9.126;2022-07-29T07:28:21;8.13;;;5.30;;
842;SDS011;407;48.884;9.126;2022-07-29T07:30:50;9.13;;;5.30;;
842;SDS011;407;48.884;9.126;2022-07-29T07:33:15;8.73;;;5.18;;
842;SDS011;407;48.884;9.126;2022-07-29T07:35:41;10.18;;;5.47;;
842;SDS011;407;48.884;9.126;2022-07-29T07:38:07;8.68;;;5.20;;
842;SDS011;407;48.884;9.126;2022-07-29T07:40:36;10.33;;;5.03;;
842;SDS011;407;48.884;9.126;2022-07-29T07:43:14;10.35;;;7.20;;
842;SDS011;407;48.884;9.126;2022-07-29T07:45:50;8.70;;;5.35;;
842;SDS011;407;48.884;9.126;2022-07-29T07:48:22;11.27;;;7.20;;
842;SDS011;407;48.884;9.126;2022-07-29T07:50:56;8.85;;;7.20;;
842;SDS011;407;48.884;9.126;2022-07-29T07:53:27;9.27;;;5.68;;
842;SDS011;407;48.884;9.126;2022-07-29T07:55:57;9.68;;;7.40;;
842;SDS011;407;48.884;9.126;2022-07-29T07:58:26;12.73;;;7.72;;
842;SDS011;407;48.884;9.126;2022-07-29T08:00:54;9.50;;;6.70;;
842;SDS011;407;48.884;9.126;2022-07-29T08:03:20;10.13;;;6.05;;
842;SDS011;407;48.884;9.126;2022-07-29T08:05:51;10.40;;;5.90;;
842;SDS011;407;48.884;9.126;2022-07-29T08:08:22;11.07;;;5.70;;
842;SDS011;407;48.884;9.126;2022-07-29T08:10:48;12.47;;;6.67;;
842;SDS011;407;48.884;9.126;2022-07-29T08:13:40;10.23;;;7.10;;
842;SDS011;407;48.884;9.126;2022-07-29T08:16:06;10.30;;;6.60;;
842;SDS011;407;48.884;9.126;2022-07-29T08:18:40;10.18;;;6.30;;
842;SDS011;407;48.884;9.126;2022-07-29T08:21:08;11.30;;;7.25;;
842;SDS011;407;48.884;9.126;2022-07-29T08:23:34;10.68;;;6.78;;
842;SDS011;407;48.884;9.126;2022-07-29T08:26:06;8.93;;;6.70;;
842;SDS011;407;48.884;9.126;2022-07-29T08:28:37;12.32;;;7.60;;
842;SDS011;407;48.884;9.126;2022-07-29T08:31:09;9.40;;;6.45;;
842;SDS011;407;48.884;9.126;2022-07-29T08:33:38;10.50;;;6.30;;
842;SDS011;407;48.884;9.126;2022-07-29T08:36:04;9.32;;;7.32;;
842;SDS011;407;48.884;9.126;2022-07-29T08:38:31;10.50;;;5.75;;
842;SDS011;407;48.884;9.126;2022-07-29T08:40:57;8.32;;;6.68;;
842;SDS011;407;48.884;9.126;2022-07-29T08:43:23;8.90;;;4.95;;
842;SDS011;407;48.884;9.126;2022-07-29T08:45:50;9.07;;;7.53;;
842;SDS011;407;48.884;9.126;2022-07-29T08:48:17;10.07;;;5.43;;
842;SDS011;407;48.884;9.126;2022-07-29T08:50:45;10.80;;;5.60;;
842;SDS011;407;48.884;9.126;2022-07-29T08:53:12;9.60;;;5.80;;
842;SDS011;407;48.884;9.126;2022-07-29T08:55:46;9.63;;;6.10;;
842;SDS011;407;48.884;9.126;2022-07-29T08:58:17;10.83;;;6.30;;
842;SDS011;407;48.884;9.126;2022-07-29T09:00:53;10.00;;;5.40;;
842;SDS011;407;48.884;9.126;2022-07-29T09:03:35;9.90;;;6.10;;
842;SDS011;407;48.884;9.126;2022-07-29T09:06:11;8.70;;;5.82;;
842;SDS011;407;48.884;9.126;2022-07-29T09:08:44;9.73;;;7.05;;
842;SDS011;407;48.884;9.126;2022-07-29T09:11:15;11.30;;;9.88;;
842;SDS011;407;48.884;9.126;2022-07-29T09:13:47;11.02;;;9.82;;
842;SDS011;407;48.884;9.126;2022-07-29T09:16:14;11.80;;;9.20;;
842;SDS011;407;48.884;9.126;2022-07-29T09:18:45;10.43;;;9.32;;
842;SDS011;407;48.884;9.126;2022-07-29T09:21:15;11.20;;;8.70;;
842;SDS011;407;48.884;9.126;2022-07-29T09:24:01;11.88;;;9.75;;
842;SDS011;407;48.884;9.126;2022-07-29T09:26:41;11.35;;;9.10;;
842;SDS011;407;48.884;9.126;2022-07-29T09:29:09;10.57;;;9.10;;
842;SDS011;407;48.884;9.126;2022-07-29T09:31:43;15.35;;;9.00;;
842;SDS011;407;48.884;9.126;2022-07-29T09:34:14;10.55;;;8.60;;
842;SDS011;407;48.884;9.126;2022-07-29T09:36:45;10.55;;;9.45;;
842;SDS011;407;48.884;9.126;2022-07-29T09:39:26;12.13;;;9.00;;
842;SDS011;407;48.884;9.126;2022-07-29T09:41:52;12.85;;;9.20;;
842;SDS011;407;48.884;9.126;2022-07-29T09:44:26;10.40;;;9.40;;
842;SDS011;407;48.884;9.126;2022-07-29T09:47:04;11.45;;;10.25;;
842;SDS011;407;48.884;9.126;2022-07-29T09:49:49;14.23;;;10.20;;
842;SDS011;407;48.884;9.126;2022-07-29T09:52:19;12.43;;;10.10;;
842;SDS011;407;48.884;9.126;2022-07-29T09:54:45;10.65;;;9.40;;
842;SDS011;407;48.884;9.126;2022-07-29T09:59:55;11.85;;;8.80;;
842;SDS011;407;48.884;9.126;2022-07-29T10:02:22;13.27;;;8.38;;
842;SDS011;407;48.884;9.126;2022-07-29T10:04:53;10.52;;;8.93;;
842;SDS011;407;48.884;9.126;2022-07-29T10:07:19;10.67;;;8.70;;
842;SDS011;407;48.884;9.126;2022-07-29T10:09:52;12.80;;;8.32;;
842;SDS011;407;48.884;9.126;2022-07-29T10:12:22;12.00;;;9.60;;
842;SDS011;407;48.884;9.126;2022-07-29T10:14:48;12.43;;;9.38;;
842;SDS011;407;48.884;9.126;2022-07-29T10:17:15;13.95;;;10.45;;
842;SDS011;407;48.884;9.126;2022-07-29T10:19:42;9.45;;;8.45;;
842;SDS011;407;48.884;9.126;2022-07-29T10:22:08;12.23;;;10.38;;
842;SDS011;407;48.884;9.126;2022-07-29T10:24:35;14.60;;;11.23;;
842;SDS011;407;48.884;9.126;2022-07-29T10:27:03;10.40;;;9.18;;
842;SDS011;407;48.884;9.126;2022-07-29T10:29:29;12.48;;;11.18;;
842;SDS011;407;48.884;9.126;2022-07-29T10:32:10;11.75;;;10.55;;
842;SDS011;407;48.884;9.126;2022-07-29T10:43:46;15.43;;;10.80;;
842;SDS011;407;48.884;9.126;2022-07-29T10:46:13;11.85;;;10.38;;
842;SDS011;407;48.884;9.126;2022-07-29T10:54:46;11.90;;;10.00;;
842;SDS011;407;48.884;9.126;2022-07-29T10:59:38;12.70;;;9.10;;
842;SDS011;407;48.884;9.126;2022-07-29T11:05:03;13.50;;;8.20;;
842;SDS011;407;48.884;9.126;2022-07-29T11:07:30;9.43;;;8.20;;
842;SDS011;407;48.884;9.126;2022-07-29T11:15:12;12.68;;;8.57;;
842;SDS011;407;48.884;9.126;2022-07-29T11:20:44;11.35;;;8.73;;
842;SDS011;407;48.884;9.126;2022-07-29T11:23:17;10.30;;;8.20;;
842;SDS011;407;48.884;9.126;2022-07-29T11:28:34;10.63;;;8.10;;
842;SDS011;407;48.884;9.126;2022-07-29T11:31:04;12.67;;;8.60;;
842;SDS011;407;48.884;9.126;2022-07-29T11:33:32;11.93;;;8.50;;
842;SDS011;407;48.884;9.126;2022-07-29T11:36:11;11.85;;;9.30;;
842;SDS011;407;48.884;9.126;2022-07-29T11:38:38;11.30;;;9.70;;
842;SDS011;407;48.884;9.126;2022-07-29T11:43:47;11.38;;;8.20;;
842;SDS011;407;48.884;9.126;2022-07-29T11:46:18;10.05;;;8.10;;
842;SDS011;407;48.884;9.126;2022-07-29T11:49:18;12.23;;;8.40;;
842;SDS011;407;48.884;9.126;2022-07-29T11:51:55;11.77;;;8.90;;
842;SDS011;407;48.884;9.126;2022-07-29T11:54:26;10.68;;;8.98;;
842;SDS011;407;48.884;9.126;2022-07-29T11:56:57;11.87;;;8.33;;
842;SDS011;407;48.884;9.126;2022-07-29T11:59:23;11.30;;;8.13;;
842;SDS011;407;48.884;9.126;2022-07-29T12:01:56;12.10;;;7.03;;
842;SDS011;407;48.884;9.126;2022-07-29T12:04:22;10.10;;;6.43;;
842;SDS011;407;48.884;9.126;2022-07-29T12:06:55;10.90;;;6.80;;
842;SDS011;407;48.884;9.126;2022-07-29T12:09:22;10.55;;;6.63;;
842;SDS011;407;48.884;9.126;2022-07-29T12:11:48;10.88;;;7.13;;
842;SDS011;407;48.884;9.126;2022-07-29T12:14:27;14.07;;;7.00;;
842;SDS011;407;48.884;9.126;2022-07-29T12:16:57;11.50;;;6.37;;
842;SDS011;407;48.884;9.126;2022-07-29T12:19:24;9.77;;;6.40;;
842;SDS011;407;48.884;9.126;2022-07-29T12:21:52;10.93;;;6.75;;
842;SDS011;407;48.884;9.126;2022-07-29T12:24:24;10.70;;;7.07;;
842;SDS011;407;48.884;9.126;2022-07-29T12:26:50;11.77;;;6.40;;
842;SDS011;407;48.884;9.126;2022-07-29T12:29:21;16.17;;;8.18;;
842;SDS011;407;48.884;9.126;2022-07-29T12:31:51;12.13;;;7.30;;
842;SDS011;407;48.884;9.126;2022-07-29T12:34:19;13.02;;;6.95;;
842;SDS011;407;48.884;9.126;2022-07-29T12:36:47;10.43;;;6.30;;
842;SDS011;407;48.884;9.126;2022-07-29T12:39:15;10.27;;;6.90;;
842;SDS011;407;48.884;9.126;2022-07-29T12:41:42;12.77;;;7.97;;
842;SDS011;407;48.884;9.126;2022-07-29T12:44:09;11.27;;;8.07;;
842;SDS011;407;48.884;9.126;2022-07-29T12:46:35;11.55;;;8.48;;
842;SDS011;407;48.884;9.126;2022-07-29T12:49:01;12.88;;;7.78;;
842;SDS011;407;48.884;9.126;2022-07-29T12:51:31;11.45;;;7.95;;
842;SDS011;407;48.884;9.126;2022-07-29T12:54:16;12.07;;;7.60;;
842;SDS011;407;48.884;9.126;2022-07-29T12:56:42;12.80;;;8.00;;
842;SDS011;407;48.884;9.126;2022-07-29T12:59:19;11.00;;;7.77;;
842;SDS011;407;48.884;9.126;2022-07-29T13:01:47;10.35;;;7.18;;
842;SDS011;407;48.884;9.126;2022-07-29T13:04:25;16.20;;;7.80;;
842;SDS011;407;48.884;9.126;2022-07-29T13:06:57;14.23;;;7.60;;
842;SDS011;407;48.884;9.126;2022-07-29T13:09:35;11.45;;;7.28;;
842;SDS011;407;48.884;9.126;2022-07-29T13:12:05;11.93;;;7.20;;
842;SDS011;407;48.884;9.126;2022-07-29T13:17:02;12.80;;;6.80;;
842;SDS011;407;48.884;9.126;2022-07-29T13:19:50;13.85;;;7.53;;
842;SDS011;407;48.884;9.126;2022-07-29T13:22:18;11.25;;;6.88;;
842;SDS011;407;48.884;9.126;2022-07-29T13:24:49;10.20;;;6.80;;
842;SDS011;407;48.884;9.126;2022-07-29T13:27:30;10.38;;;6.90;;
842;SDS011;407;48.884;9.126;2022-07-29T13:29:58;12.05;;;7.60;;
842;SDS011;407;48.884;9.126;2022-07-29T13:32:26;9.55;;;6.40;;
842;SDS011;407;48.884;9.126;2022-07-29T13:34:53;10.63;;;6.20;;
842;SDS011;407;48.884;9.126;2022-07-29T13:37:19;13.10;;;6.43;;
842;SDS011;407;48.884;9.126;2022-07-29T13:39:45;9.30;;;5.80;;
842;SDS011;407;48.884;9.126;2022-07-29T13:42:10;10.30;;;6.00;;
842;SDS011;407;48.884;9.126;2022-07-29T13:44:38;9.00;;;5.90;;
842;SDS011;407;48.884;9.126;2022-07-29T13:47:05;9.55;;;6.30;;
842;SDS011;407;48.884;9.126;2022-07-29T13:49:31;9.70;;;5.70;;
842;SDS011;407;48.884;9.126;2022-07-29T13:51:57;10.35;;;5.88;;
842;SDS011;407;48.884;9.126;2022-07-29T13:54:23;9.43;;;6.10;;
842;SDS011;407;48.884;9.126;2022-07-29T13:56:55;9.02;;;6.05;;
842;SDS011;407;48.884;9.126;2022-07-29T13:59:20;8.75;;;5.90;;
842;SDS011;407;48.884;9.126;2022-07-29T14:01:46;8.30;;;5.45;;
842;SDS011;407;48.884;9.126;2022-07-29T14:04:12;13.13;;;6.40;;
842;SDS011;407;48.884;9.126;2022-07-29T14:06:38;8.98;;;6.00;;
842;SDS011;407;48.884;9.126;2022-07-29T14:09:04;9.50;;;5.82;;
842;SDS011;407;48.884;9.126;2022-07-29T14:11:31;9.70;;;6.47;;
842;SDS011;407;48.884;9.126;2022-07-29T14:13:57;10.40;;;6.40;;
842;SDS011;407;48.884;9.126;2022-07-29T14:16:23;9.68;;;7.03;;
842;SDS011;407;48.884;9.126;2022-07-29T14:18:48;9.38;;;6.13;;
842;SDS011;407;48.884;9.126;2022-07-29T14:21:14;10.43;;;5.80;;
842;SDS011;407;48.884;9.126;2022-07-29T14:23:39;8.52;;;5.75;;
842;SDS011;407;48.884;9.126;2022-07-29T14:26:05;9.80;;;6.20;;
842;SDS011;407;48.884;9.126;2022-07-29T14:28:31;11.77;;;6.47;;
842;SDS011;407;48.884;9.126;2022-07-29T14:30:57;8.93;;;6.10;;
842;SDS011;407;48.884;9.126;2022-07-29T14:33:23;9.70;;;6.50;;
842;SDS011;407;48.884;9.126;2022-07-29T14:35:48;12.23;;;6.30;;
842;SDS011;407;48.884;9.126;2022-07-29T14:38:14;10.70;;;6.60;;
842;SDS011;407;48.884;9.126;2022-07-29T14:40:39;11.73;;;6.95;;
842;SDS011;407;48.884;9.126;2022-07-29T14:43:05;9.30;;;6.53;;
842;SDS011;407;48.884;9.126;2022-07-29T14:45:31;10.50;;;6.83;;
842;SDS011;407;48.884;9.126;2022-07-29T14:47:56;9.02;;;6.72;;
842;SDS011;407;48.884;9.126;2022-07-29T14:50:22;15.30;;;6.72;;
842;SDS011;407;48.884;9.126;2022-07-29T14:52:48;10.50;;;6.80;;
842;SDS011;407;48.884;9.126;2022-07-29T14:55:14;10.75;;;6.70;;
842;SDS011;407;48.884;9.126;2022-07-29T14:57:40;9.95;;;6.20;;
842;SDS011;407;48.884;9.126;2022-07-29T15:00:05;10.07;;;5.80;;
842;SDS011;407;48.884;9.126;2022-07-29T15:02:32;9.13;;;5.83;;
842;SDS011;407;48.884;9.126;2022-07-29T15:04:58;9.50;;;6.50;;
842;SDS011;407;48.884;9.126;2022-07-29T15:07:24;10.50;;;6.43;;
842;SDS011;407;48.884;9.126;2022-07-29T15:09:49;11.43;;;6.10;;
842;SDS011;407;48.884;9.126;2022-07-29T15:12:15;10.90;;;5.75;;
842;SDS011;407;48.884;9.126;2022-07-29T15:14:41;12.45;;;5.70;;
842;SDS011;407;48.884;9.126;2022-07-29T15:17:07;14.00;;;5.70;;
842;SDS011;407;48.884;9.126;2022-07-29T15:19:32;10.47;;;5.90;;
842;SDS011;407;48.884;9.126;2022-07-29T15:21:58;11.40;;;5.90;;
842;SDS011;407;48.884;9.126;2022-07-29T15:24:24;8.80;;;6.30;;
842;SDS011;407;48.884;9.126;2022-07-29T15:26:49;7.80;;;6.00;;
842;SDS011;407;48.884;9.126;2022-07-29T15:29:15;8.03;;;5.80;;
842;SDS011;407;48.884;9.126;2022-07-29T15:31:41;11.60;;;6.20;;
842;SDS011;407;48.884;9.126;2022-07-29T15:34:07;10.37;;;6.20;;
842;SDS011;407;48.884;9.126;2022-07-29T15:36:32;12.45;;;6.45;;
842;SDS011;407;48.884;9.126;2022-07-29T15:38:58;13.10;;;6.35;;
842;SDS011;407;48.884;9.126;2022-07-29T15:41:24;11.93;;;5.85;;
842;SDS011;407;48.884;9.126;2022-07-29T15:43:49;14.05;;;6.15;;
842;SDS011;407;48.884;9.126;2022-07-29T15:46:16;11.40;;;5.70;;
842;SDS011;407;48.884;9.126;2022-07-29T15:49:02;10.43;;;5.60;;
842;SDS011;407;48.884;9.126;2022-07-29T15:51:29;11.32;;;5.22;;
842;SDS011;407;48.884;9.126;2022-07-29T15:53:54;7.50;;;4.85;;
842;SDS011;407;48.884;9.126;2022-07-29T15:56:20;7.60;;;4.72;;
842;SDS011;407;48.884;9.126;2022-07-29T15:58:46;7.80;;;5.07;;
842;SDS011;407;48.884;9.126;2022-07-29T16:01:12;8.30;;;6.27;;
842;SDS011;407;48.884;9.126;2022-07-29T16:03:37;11.03;;;6.60;;
842;SDS011;407;48.884;9.126;2022-07-29T16:06:03;8.50;;;5.57;;
842;SDS011;407;48.884;9.126;2022-07-29T16:08:29;8.80;;;5.40;;
842;SDS011;407;48.884;9.126;2022-07-29T16:10:55;9.50;;;5.33;;
842;SDS011;407;48.884;9.126;2022-07-29T16:13:20;8.55;;;5.50;;
842;SDS011;407;48.884;9.126;2022-07-29T16:15:46;7.37;;;5.40;;
842;SDS011;407;48.884;9.126;2022-07-29T16:18:12;8.55;;;5.40;;
842;SDS011;407;48.884;9.126;2022-07-29T16:20:38;9.93;;;5.30;;
842;SDS011;407;48.884;9.126;2022-07-29T16:23:05;7.73;;;5.60;;
842;SDS011;407;48.884;9.126;2022-07-29T16:25:33;8.73;;;5.18;;
842;SDS011;407;48.884;9.126;2022-07-29T16:27:59;10.02;;;5.50;;
842;SDS011;407;48.884;9.126;2022-07-29T16:30:24;9.80;;;5.80;;
842;SDS011;407;48.884;9.126;2022-07-29T16:32:50;7.40;;;5.77;;
842;SDS011;407;48.884;9.126;2022-07-29T16:35:16;10.38;;;5.50;;
842;SDS011;407;48.884;9.126;2022-07-29T16:37:41;9.15;;;6.50;;
842;SDS011;407;48.884;9.126;2022-07-29T16:40:07;10.75;;;5.45;;
842;SDS011;407;48.884;9.126;2022-07-29T16:42:34;10.10;;;5.30;;